createdAt,value
2019-02-06T00:00:26.497Z,950.49
2019-02-06T00:01:27.869Z,950.49
2019-02-06T00:02:35.832Z,950.42
2019-02-06T00:03:43.871Z,950.42
2019-02-06T00:04:51.934Z,950.42
2019-02-06T00:05:59.985Z,950.40
2019-02-06T00:07:08.128Z,950.41
2019-02-06T00:08:16.092Z,950.38
2019-02-06T00:09:24.135Z,950.35
2019-02-06T00:10:32.165Z,950.34
2019-02-06T00:11:40.286Z,950.33
2019-02-06T00:12:48.319Z,950.36
2019-02-06T00:13:56.347Z,950.33
2019-02-06T00:15:04.500Z,950.35
2019-02-06T00:16:12.451Z,950.34
2019-02-06T00:17:20.613Z,950.38
2019-02-06T00:18:28.664Z,950.41
2019-02-06T00:19:36.615Z,950.38
2019-02-06T00:20:44.647Z,950.38
2019-02-06T00:21:52.825Z,950.40
2019-02-06T00:23:00.747Z,950.40
2019-02-06T00:24:08.807Z,950.37
2019-02-06T00:25:16.863Z,950.43
2019-02-06T00:26:24.910Z,950.42
2019-02-06T00:27:33.055Z,950.40
2019-02-06T00:28:41.025Z,950.42
2019-02-06T00:29:49.071Z,950.42
2019-02-06T00:30:57.130Z,950.46
2019-02-06T00:32:05.249Z,950.47
2019-02-06T00:33:13.202Z,950.44
2019-02-06T00:34:21.338Z,950.45
2019-02-06T00:35:29.321Z,950.43
2019-02-06T00:36:37.373Z,950.40
2019-02-06T00:37:45.518Z,950.43
2019-02-06T00:38:53.476Z,950.43
2019-02-06T00:40:01.539Z,950.45
2019-02-06T00:41:09.577Z,950.45
2019-02-06T00:42:17.666Z,950.46
2019-02-06T00:43:25.682Z,950.44
2019-02-06T00:44:33.732Z,950.44
2019-02-06T00:45:41.755Z,950.43
2019-02-06T00:46:49.838Z,950.42
2019-02-06T00:47:57.988Z,950.45
2019-02-06T00:49:05.935Z,950.45
2019-02-06T00:50:13.971Z,950.45
2019-02-06T00:51:22.052Z,950.43
2019-02-06T00:52:30.188Z,950.42
2019-02-06T00:53:38.199Z,950.40
2019-02-06T00:54:46.180Z,950.39
2019-02-06T00:55:54.241Z,950.41
2019-02-06T00:57:02.280Z,950.39
2019-02-06T00:58:10.342Z,950.43
2019-02-06T00:59:18.402Z,950.40
2019-02-06T01:00:26.465Z,950.39
2019-02-06T01:01:34.511Z,950.37
2019-02-06T01:02:42.686Z,950.34
2019-02-06T01:03:50.619Z,950.31
2019-02-06T01:04:58.682Z,950.33
2019-02-06T01:06:06.720Z,950.28
2019-02-06T01:07:14.777Z,950.29
2019-02-06T01:08:22.811Z,950.29
2019-02-06T01:09:30.980Z,950.30
2019-02-06T01:10:38.928Z,950.25
2019-02-06T01:11:46.988Z,950.25
2019-02-06T01:12:55.085Z,950.24
2019-02-06T01:14:03.079Z,950.22
2019-02-06T01:15:11.131Z,950.20
2019-02-06T01:16:19.175Z,950.20
2019-02-06T01:17:27.336Z,950.15
2019-02-06T01:18:35.284Z,950.14
2019-02-06T01:19:43.340Z,950.17
2019-02-06T01:20:51.381Z,950.15
2019-02-06T01:21:59.448Z,950.14
2019-02-06T01:23:07.548Z,950.16
2019-02-06T01:24:15.536Z,950.19
2019-02-06T01:25:23.686Z,950.16
2019-02-06T01:26:31.637Z,950.21
2019-02-06T01:27:39.758Z,950.21
2019-02-06T01:28:47.760Z,950.20
2019-02-06T01:29:55.797Z,950.16
2019-02-06T01:31:03.855Z,950.09
2019-02-06T01:32:11.906Z,950.06
2019-02-06T01:33:20.052Z,950.05
2019-02-06T01:34:28.014Z,950.01
2019-02-06T01:35:36.055Z,950.04
2019-02-06T01:36:44.103Z,950.03
2019-02-06T01:37:52.392Z,950.04
2019-02-06T01:39:00.210Z,950.02
2019-02-06T01:40:08.266Z,950.00
2019-02-06T01:41:16.425Z,950.00
2019-02-06T01:42:24.455Z,950.06
2019-02-06T01:43:32.463Z,950.05
2019-02-06T01:44:40.471Z,950.04
2019-02-06T01:45:48.543Z,950.07
2019-02-06T01:46:56.572Z,950.12
2019-02-06T01:48:04.692Z,950.11
2019-02-06T01:49:12.681Z,950.11
2019-02-06T01:50:20.731Z,950.11
2019-02-06T01:51:28.771Z,950.11
2019-02-06T01:52:36.829Z,950.11
2019-02-06T01:53:44.945Z,950.12
2019-02-06T01:54:52.939Z,950.11
2019-02-06T01:56:00.986Z,950.13
2019-02-06T01:57:09.058Z,950.11
2019-02-06T01:58:17.186Z,950.16
2019-02-06T01:59:25.154Z,950.17
2019-02-06T02:00:33.202Z,950.18
2019-02-06T02:01:41.238Z,950.19
2019-02-06T02:02:49.317Z,950.18
2019-02-06T02:03:57.480Z,950.18
2019-02-06T02:05:05.411Z,950.15
2019-02-06T02:06:13.454Z,950.16
2019-02-06T02:07:21.502Z,950.11
2019-02-06T02:08:29.662Z,950.11
2019-02-06T02:09:37.633Z,950.11
2019-02-06T02:10:45.679Z,950.10
2019-02-06T02:11:53.721Z,950.09
2019-02-06T02:13:01.845Z,950.15
2019-02-06T02:14:09.905Z,950.11
2019-02-06T02:15:17.877Z,950.08
2019-02-06T02:16:25.914Z,950.09
2019-02-06T02:17:33.962Z,950.11
2019-02-06T02:18:42.095Z,950.09
2019-02-06T02:19:50.085Z,950.09
2019-02-06T02:20:58.136Z,950.13
2019-02-06T02:22:06.189Z,950.08
2019-02-06T02:23:14.226Z,950.04
2019-02-06T02:24:22.361Z,950.01
2019-02-06T02:25:30.337Z,950.02
2019-02-06T02:26:38.385Z,950.02
2019-02-06T02:27:46.448Z,950.06
2019-02-06T02:28:54.574Z,950.09
2019-02-06T02:30:02.533Z,950.02
2019-02-06T02:31:10.584Z,950.07
2019-02-06T02:32:18.653Z,950.03
2019-02-06T02:33:26.694Z,950.03
2019-02-06T02:34:34.839Z,950.02
2019-02-06T02:35:42.822Z,949.99
2019-02-06T02:36:50.840Z,949.96
2019-02-06T02:37:58.916Z,949.96
2019-02-06T02:39:07.036Z,949.98
2019-02-06T02:40:15.166Z,949.93
2019-02-06T02:41:23.044Z,949.99
2019-02-06T02:42:31.106Z,949.94
2019-02-06T02:43:39.159Z,949.94
2019-02-06T02:44:47.287Z,949.94
2019-02-06T02:45:55.288Z,949.91
2019-02-06T02:47:03.305Z,949.87
2019-02-06T02:48:11.438Z,949.89
2019-02-06T02:49:19.518Z,949.86
2019-02-06T02:50:27.475Z,949.84
2019-02-06T02:51:35.533Z,949.84
2019-02-06T02:52:43.582Z,949.79
2019-02-06T02:53:51.607Z,949.83
2019-02-06T02:54:59.666Z,949.79
2019-02-06T02:56:07.707Z,949.81
2019-02-06T02:57:15.779Z,949.81
2019-02-06T02:58:23.824Z,949.86
2019-02-06T02:59:31.901Z,949.86
2019-02-06T03:00:39.927Z,949.88
2019-02-06T03:01:47.984Z,949.85
2019-02-06T03:02:56.034Z,949.84
2019-02-06T03:04:04.266Z,949.82
2019-02-06T03:05:12.102Z,949.83
2019-02-06T03:06:27.951Z,949.82
2019-02-06T03:07:28.241Z,949.79
2019-02-06T03:08:36.274Z,949.80
2019-02-06T03:09:44.432Z,949.79
2019-02-06T03:10:52.379Z,949.81
2019-02-06T03:12:00.435Z,949.80
2019-02-06T03:13:08.487Z,949.81
2019-02-06T03:14:16.554Z,949.83
2019-02-06T03:15:24.581Z,949.81
2019-02-06T03:16:32.643Z,949.79
2019-02-06T03:17:40.707Z,949.82
2019-02-06T03:18:48.760Z,949.78
2019-02-06T03:19:56.880Z,949.79
2019-02-06T03:21:04.841Z,949.74
2019-02-06T03:22:12.896Z,949.72
2019-02-06T03:23:21.034Z,949.75
2019-02-06T03:24:29.095Z,949.79
2019-02-06T03:25:37.044Z,949.77
2019-02-06T03:26:45.110Z,949.74
2019-02-06T03:27:53.152Z,949.73
2019-02-06T03:29:01.212Z,949.76
2019-02-06T03:30:09.353Z,949.73
2019-02-06T03:31:17.310Z,949.72
2019-02-06T03:32:25.389Z,949.71
2019-02-06T03:33:33.430Z,949.70
2019-02-06T03:34:41.552Z,949.71
2019-02-06T03:35:49.522Z,949.68
2019-02-06T03:36:57.566Z,949.67
2019-02-06T03:38:05.621Z,949.65
2019-02-06T03:39:13.761Z,949.69
2019-02-06T03:40:21.749Z,949.66
2019-02-06T03:41:29.771Z,949.64
2019-02-06T03:42:37.820Z,949.63
2019-02-06T03:43:45.854Z,949.66
2019-02-06T03:44:53.974Z,949.63
2019-02-06T03:46:01.954Z,949.63
2019-02-06T03:47:10.150Z,949.63
2019-02-06T03:48:18.067Z,949.63
2019-02-06T03:49:26.135Z,949.62
2019-02-06T03:50:34.289Z,949.63
2019-02-06T03:51:42.231Z,949.64
2019-02-06T03:52:50.280Z,949.65
2019-02-06T03:53:58.319Z,949.64
2019-02-06T03:55:06.480Z,949.61
2019-02-06T03:56:14.444Z,949.66
2019-02-06T03:57:22.535Z,949.64
2019-02-06T03:58:30.564Z,949.63
2019-02-06T03:59:38.584Z,949.66
2019-02-06T04:00:46.736Z,949.63
2019-02-06T04:01:54.688Z,949.64
2019-02-06T04:03:02.867Z,949.69
2019-02-06T04:04:10.789Z,949.69
2019-02-06T04:05:18.890Z,949.69
2019-02-06T04:06:26.909Z,949.70
2019-02-06T04:07:34.959Z,949.69
2019-02-06T04:08:43.008Z,949.67
2019-02-06T04:09:51.051Z,949.69
2019-02-06T04:10:59.214Z,949.68
2019-02-06T04:12:07.155Z,949.70
2019-02-06T04:13:15.298Z,949.67
2019-02-06T04:14:23.268Z,949.64
2019-02-06T04:15:31.344Z,949.63
2019-02-06T04:16:39.368Z,949.65
2019-02-06T04:17:47.419Z,949.61
2019-02-06T04:18:55.462Z,949.65
2019-02-06T04:20:03.524Z,949.67
2019-02-06T04:21:11.659Z,949.65
2019-02-06T04:22:19.627Z,949.63
2019-02-06T04:23:27.673Z,949.63
2019-02-06T04:24:35.717Z,949.61
2019-02-06T04:25:43.882Z,949.64
2019-02-06T04:26:51.810Z,949.67
2019-02-06T04:27:59.995Z,949.65
2019-02-06T04:29:07.933Z,949.68
2019-02-06T04:30:16.766Z,949.71
2019-02-06T04:31:24.138Z,949.70
2019-02-06T04:32:32.073Z,949.73
2019-02-06T04:33:40.129Z,949.71
2019-02-06T04:34:48.191Z,949.71
2019-02-06T04:35:56.327Z,949.71
2019-02-06T04:37:06.416Z,949.74
2019-02-06T04:38:12.345Z,949.75
2019-02-06T04:39:20.391Z,949.73
2019-02-06T04:40:28.480Z,949.78
2019-02-06T04:41:36.584Z,949.80
2019-02-06T04:42:44.555Z,949.81
2019-02-06T04:43:52.681Z,949.85
2019-02-06T04:45:00.659Z,949.84
2019-02-06T04:46:08.793Z,949.82
2019-02-06T04:47:16.745Z,949.82
2019-02-06T04:48:24.919Z,949.83
2019-02-06T04:49:32.870Z,949.79
2019-02-06T04:50:40.916Z,949.80
2019-02-06T04:51:49.092Z,949.77
2019-02-06T04:52:57.023Z,949.74
2019-02-06T04:54:05.073Z,949.73
2019-02-06T04:55:13.114Z,949.70
2019-02-06T04:56:21.213Z,949.79
2019-02-06T04:57:29.209Z,949.78
2019-02-06T04:58:37.262Z,949.78
2019-02-06T04:59:45.331Z,949.81
2019-02-06T05:00:53.380Z,949.77
2019-02-06T05:02:01.455Z,949.83
2019-02-06T05:03:09.579Z,949.77
2019-02-06T05:04:17.539Z,949.78
2019-02-06T05:05:25.598Z,949.76
2019-02-06T05:06:33.731Z,949.76
2019-02-06T05:07:41.683Z,949.76
2019-02-06T05:08:49.754Z,949.77
2019-02-06T05:09:57.794Z,949.73
2019-02-06T05:11:05.845Z,949.76
2019-02-06T05:12:13.939Z,949.79
2019-02-06T05:13:21.944Z,949.78
2019-02-06T05:14:29.990Z,949.79
2019-02-06T05:15:38.055Z,949.82
2019-02-06T05:16:46.203Z,949.86
2019-02-06T05:17:55.874Z,949.83
2019-02-06T05:19:02.292Z,949.82
2019-02-06T05:20:10.254Z,949.82
2019-02-06T05:21:18.307Z,949.87
2019-02-06T05:22:26.410Z,949.83
2019-02-06T05:23:34.453Z,949.83
2019-02-06T05:24:42.530Z,949.82
2019-02-06T05:25:50.515Z,949.83
2019-02-06T05:26:58.620Z,949.79
2019-02-06T05:28:06.636Z,949.81
2019-02-06T05:29:14.663Z,949.82
2019-02-06T05:30:22.722Z,949.81
2019-02-06T05:31:30.890Z,949.86
2019-02-06T05:32:42.772Z,949.82
2019-02-06T05:33:46.915Z,949.82
2019-02-06T05:34:55.038Z,949.83
2019-02-06T05:36:02.985Z,949.86
2019-02-06T05:37:11.140Z,949.87
2019-02-06T05:38:19.085Z,949.87
2019-02-06T05:39:27.145Z,949.90
2019-02-06T05:40:35.172Z,949.90
2019-02-06T05:41:43.360Z,949.90
2019-02-06T05:42:52.722Z,949.89
2019-02-06T05:43:59.388Z,949.90
2019-02-06T05:45:07.403Z,949.87
2019-02-06T05:46:15.452Z,949.87
2019-02-06T05:47:23.557Z,949.85
2019-02-06T05:48:31.545Z,949.90
2019-02-06T05:49:39.592Z,949.87
2019-02-06T05:50:47.907Z,949.88
2019-02-06T05:51:55.802Z,949.87
2019-02-06T05:53:03.772Z,949.84
2019-02-06T05:54:12.636Z,949.84
2019-02-06T05:55:19.874Z,949.85
2019-02-06T05:56:27.915Z,949.85
2019-02-06T05:57:36.070Z,949.85
2019-02-06T05:58:44.024Z,949.85
2019-02-06T05:59:52.046Z,949.88
2019-02-06T06:01:00.122Z,949.93
2019-02-06T06:02:08.272Z,949.92
2019-02-06T06:03:16.257Z,949.93
2019-02-06T06:04:24.309Z,949.93
2019-02-06T06:05:32.353Z,949.88
2019-02-06T06:06:40.475Z,949.87
2019-02-06T06:07:48.535Z,949.85
2019-02-06T06:08:56.505Z,949.84
2019-02-06T06:10:05.200Z,949.81
2019-02-06T06:11:12.597Z,949.80
2019-02-06T06:12:20.814Z,949.79
2019-02-06T06:13:28.699Z,949.83
2019-02-06T06:14:37.186Z,949.79
2019-02-06T06:15:44.814Z,949.80
2019-02-06T06:16:52.854Z,949.77
2019-02-06T06:18:00.956Z,949.84
2019-02-06T06:19:08.974Z,949.83
2019-02-06T06:20:17.086Z,949.77
2019-02-06T06:21:25.085Z,949.81
2019-02-06T06:22:33.210Z,949.78
2019-02-06T06:23:41.174Z,949.79
2019-02-06T06:24:49.219Z,949.80
2019-02-06T06:25:57.276Z,949.83
2019-02-06T06:27:05.322Z,949.81
2019-02-06T06:28:13.495Z,949.77
2019-02-06T06:29:21.415Z,949.82
2019-02-06T06:30:29.476Z,949.81
2019-02-06T06:31:37.572Z,949.84
2019-02-06T06:32:45.679Z,949.82
2019-02-06T06:33:53.641Z,949.84
2019-02-06T06:35:01.930Z,949.81
2019-02-06T06:36:10.764Z,949.83
2019-02-06T06:37:17.786Z,949.83
2019-02-06T06:38:26.244Z,949.80
2019-02-06T06:39:33.897Z,949.81
2019-02-06T06:40:42.174Z,949.79
2019-02-06T06:41:50.050Z,949.79
2019-02-06T06:42:58.339Z,949.80
2019-02-06T06:44:06.323Z,949.80
2019-02-06T06:45:14.297Z,949.81
2019-02-06T06:46:22.185Z,949.76
2019-02-06T06:47:30.414Z,949.74
2019-02-06T06:48:38.366Z,949.76
2019-02-06T06:49:46.364Z,949.77
2019-02-06T06:50:54.429Z,949.82
2019-02-06T06:52:03.959Z,949.81
2019-02-06T06:53:10.610Z,949.84
2019-02-06T06:54:18.592Z,949.82
2019-02-06T06:55:26.659Z,949.86
2019-02-06T06:56:34.871Z,949.88
2019-02-06T06:57:43.401Z,949.87
2019-02-06T06:58:51.479Z,949.87
2019-02-06T07:00:00.317Z,949.84
2019-02-06T07:01:06.918Z,949.83
2019-02-06T07:02:14.956Z,949.82
2019-02-06T07:03:23.111Z,949.85
2019-02-06T07:04:31.059Z,949.87
2019-02-06T07:05:39.108Z,949.83
2019-02-06T07:06:47.167Z,949.89
2019-02-06T07:07:55.318Z,949.93
2019-02-06T07:09:03.273Z,949.92
2019-02-06T07:10:12.238Z,949.92
2019-02-06T07:11:19.455Z,949.96
2019-02-06T07:12:27.411Z,950.02
2019-02-06T07:13:37.144Z,950.01
2019-02-06T07:14:43.557Z,949.98
2019-02-06T07:15:51.567Z,950.02
2019-02-06T07:16:59.631Z,950.01
2019-02-06T07:18:07.792Z,950.00
2019-02-06T07:19:15.734Z,950.01
2019-02-06T07:20:23.791Z,950.01
2019-02-06T07:21:31.901Z,950.03
2019-02-06T07:22:39.998Z,950.06
2019-02-06T07:23:48.321Z,950.08
2019-02-06T07:24:55.994Z,950.09
2019-02-06T07:26:04.042Z,950.10
2019-02-06T07:27:12.085Z,950.12
2019-02-06T07:28:20.367Z,950.12
2019-02-06T07:29:28.607Z,950.12
2019-02-06T07:30:36.258Z,950.16
2019-02-06T07:31:44.340Z,950.17
2019-02-06T07:32:52.452Z,950.14
2019-02-06T07:34:00.512Z,950.17
2019-02-06T07:35:08.488Z,950.20
2019-02-06T07:36:16.529Z,950.19
2019-02-06T07:37:24.715Z,950.18
2019-02-06T07:38:32.627Z,950.15
2019-02-06T07:39:41.099Z,950.17
2019-02-06T07:40:48.744Z,950.15
2019-02-06T07:41:56.785Z,950.17
2019-02-06T07:43:05.276Z,950.17
2019-02-06T07:44:13.498Z,950.20
2019-02-06T07:45:20.975Z,950.18
2019-02-06T07:46:29.000Z,950.22
2019-02-06T07:47:37.267Z,950.23
2019-02-06T07:48:45.253Z,950.22
2019-02-06T07:49:53.518Z,950.18
2019-02-06T07:51:01.221Z,950.24
2019-02-06T07:52:09.259Z,950.24
2019-02-06T07:53:17.428Z,950.24
2019-02-06T07:54:25.622Z,950.28
2019-02-06T07:55:33.442Z,950.20
2019-02-06T07:56:41.485Z,950.25
2019-02-06T07:57:49.531Z,950.23
2019-02-06T07:58:57.639Z,950.26
2019-02-06T08:00:05.636Z,950.24
2019-02-06T08:01:13.779Z,950.30
2019-02-06T08:02:21.749Z,950.32
2019-02-06T08:03:29.869Z,950.29
2019-02-06T08:04:37.891Z,950.30
2019-02-06T08:05:45.899Z,950.30
2019-02-06T08:06:54.104Z,950.31
2019-02-06T08:08:02.300Z,950.34
2019-02-06T08:09:10.650Z,950.30
2019-02-06T08:10:18.228Z,950.32
2019-02-06T08:11:26.518Z,950.34
2019-02-06T08:12:34.233Z,950.35
2019-02-06T08:13:42.492Z,950.33
2019-02-06T08:14:50.696Z,950.36
2019-02-06T08:15:58.384Z,950.40
2019-02-06T08:17:06.870Z,950.39
2019-02-06T08:18:14.781Z,950.36
2019-02-06T08:19:22.545Z,950.32
2019-02-06T08:20:30.608Z,950.36
2019-02-06T08:21:38.820Z,950.36
2019-02-06T08:22:46.709Z,950.39
2019-02-06T08:23:54.884Z,950.37
2019-02-06T08:25:02.840Z,950.38
2019-02-06T08:26:10.878Z,950.33
2019-02-06T08:27:19.120Z,950.35
2019-02-06T08:28:27.209Z,950.39
2019-02-06T08:29:35.084Z,950.38
2019-02-06T08:30:43.543Z,950.35
2019-02-06T08:31:51.180Z,950.34
2019-02-06T08:32:59.449Z,950.33
2019-02-06T08:34:07.266Z,950.34
2019-02-06T08:35:15.385Z,950.33
2019-02-06T08:36:23.642Z,950.33
2019-02-06T08:37:31.414Z,950.36
2019-02-06T08:38:47.260Z,950.37
2019-02-06T08:39:47.736Z,950.34
2019-02-06T08:40:55.713Z,950.35
2019-02-06T08:42:03.636Z,950.32
2019-02-06T08:43:11.815Z,950.31
2019-02-06T08:44:19.752Z,950.32
2019-02-06T08:45:28.045Z,950.36
2019-02-06T08:46:35.865Z,950.35
2019-02-06T08:47:44.329Z,950.38
2019-02-06T08:48:51.956Z,950.39
2019-02-06T08:50:00.311Z,950.39
2019-02-06T08:51:08.502Z,950.36
2019-02-06T08:52:16.227Z,950.36
2019-02-06T08:53:24.487Z,950.33
2019-02-06T08:54:32.737Z,950.34
2019-02-06T08:55:40.425Z,950.33
2019-02-06T08:56:48.333Z,950.35
2019-02-06T08:57:56.410Z,950.28
2019-02-06T08:59:04.472Z,950.27
2019-02-06T09:00:12.566Z,950.22
2019-02-06T09:01:21.052Z,950.29
2019-02-06T09:02:28.624Z,950.26
2019-02-06T09:03:36.672Z,950.24
2019-02-06T09:04:55.128Z,950.26
2019-02-06T09:05:53.001Z,950.26
2019-02-06T09:07:00.891Z,950.25
2019-02-06T09:08:08.914Z,950.24
2019-02-06T09:09:16.939Z,950.28
2019-02-06T09:10:25.104Z,950.24
2019-02-06T09:11:33.464Z,950.26
2019-02-06T09:12:41.102Z,950.24
2019-02-06T09:13:49.404Z,950.27
2019-02-06T09:14:57.541Z,950.30
2019-02-06T09:16:05.379Z,950.31
2019-02-06T09:17:13.516Z,950.28
2019-02-06T09:18:21.758Z,950.28
2019-02-06T09:19:29.457Z,950.28
2019-02-06T09:20:37.584Z,950.31
2019-02-06T09:21:45.812Z,950.28
2019-02-06T09:22:53.615Z,950.30
2019-02-06T09:24:01.645Z,950.36
2019-02-06T09:25:09.720Z,950.34
2019-02-06T09:26:17.878Z,950.36
2019-02-06T09:27:25.851Z,950.40
2019-02-06T09:28:37.098Z,950.40
2019-02-06T09:29:41.924Z,950.41
2019-02-06T09:30:50.170Z,950.39
2019-02-06T09:31:59.387Z,950.41
2019-02-06T09:33:06.154Z,950.41
2019-02-06T09:34:14.504Z,950.44
2019-02-06T09:35:22.209Z,950.37
2019-02-06T09:36:30.274Z,950.37
2019-02-06T09:37:38.344Z,950.37
2019-02-06T09:38:46.400Z,950.38
2019-02-06T09:39:54.456Z,950.29
2019-02-06T09:41:02.594Z,950.33
2019-02-06T09:42:10.570Z,950.32
2019-02-06T09:43:19.156Z,950.31
2019-02-06T09:44:26.682Z,950.32
2019-02-06T09:45:34.740Z,950.27
2019-02-06T09:46:42.796Z,950.24
2019-02-06T09:47:50.839Z,950.21
2019-02-06T09:48:58.888Z,950.23
2019-02-06T09:50:07.064Z,950.25
2019-02-06T09:51:15.113Z,950.21
2019-02-06T09:52:25.128Z,950.18
2019-02-06T09:53:31.137Z,950.23
2019-02-06T09:54:39.165Z,950.20
2019-02-06T09:55:47.328Z,950.20
2019-02-06T09:56:55.358Z,950.19
2019-02-06T09:58:03.426Z,950.20
2019-02-06T09:59:11.606Z,950.20
2019-02-06T10:00:19.806Z,950.24
2019-02-06T10:01:27.584Z,950.22
2019-02-06T10:02:35.585Z,950.24
2019-02-06T10:03:46.340Z,950.25
2019-02-06T10:04:51.718Z,950.24
2019-02-06T10:05:59.929Z,950.21
2019-02-06T10:07:08.004Z,950.26
2019-02-06T10:08:16.002Z,950.21
2019-02-06T10:09:24.058Z,950.26
2019-02-06T10:10:31.979Z,950.24
2019-02-06T10:11:40.212Z,950.23
2019-02-06T10:12:49.168Z,950.21
2019-02-06T10:13:56.698Z,950.24
2019-02-06T10:15:04.194Z,950.25
2019-02-06T10:16:12.308Z,950.28
2019-02-06T10:17:20.321Z,950.25
2019-02-06T10:18:28.393Z,950.28
2019-02-06T10:19:36.434Z,950.32
2019-02-06T10:20:44.484Z,950.28
2019-02-06T10:21:53.610Z,950.30
2019-02-06T10:23:01.204Z,950.27
2019-02-06T10:24:08.662Z,950.32
2019-02-06T10:25:18.283Z,950.26
2019-02-06T10:26:24.876Z,950.25
2019-02-06T10:27:34.322Z,950.25
2019-02-06T10:28:40.882Z,950.27
2019-02-06T10:29:49.553Z,950.28
2019-02-06T10:30:57.006Z,950.27
2019-02-06T10:32:05.644Z,950.25
2019-02-06T10:33:13.315Z,950.27
2019-02-06T10:34:21.221Z,950.29
2019-02-06T10:35:29.221Z,950.25
2019-02-06T10:36:37.367Z,950.28
2019-02-06T10:37:45.340Z,950.27
2019-02-06T10:38:53.409Z,950.25
2019-02-06T10:40:01.605Z,950.25
2019-02-06T10:41:09.980Z,950.24
2019-02-06T10:42:17.752Z,950.24
2019-02-06T10:43:31.855Z,950.22
2019-02-06T10:44:33.679Z,950.21
2019-02-06T10:45:41.723Z,950.20
2019-02-06T10:46:49.847Z,950.18
2019-02-06T10:47:57.857Z,950.20
2019-02-06T10:49:05.913Z,950.21
2019-02-06T10:50:13.967Z,950.20
2019-02-06T10:51:22.311Z,950.24
2019-02-06T10:52:30.187Z,950.27
2019-02-06T10:53:38.169Z,950.20
2019-02-06T10:54:46.204Z,950.21
2019-02-06T10:55:54.258Z,950.20
2019-02-06T10:57:02.912Z,950.15
2019-02-06T10:58:10.736Z,950.14
2019-02-06T10:59:18.430Z,950.08
2019-02-06T11:00:29.781Z,950.03
2019-02-06T11:01:34.803Z,950.02
2019-02-06T11:02:42.715Z,949.97
2019-02-06T11:03:50.684Z,949.99
2019-02-06T11:04:58.730Z,949.94
2019-02-06T11:06:06.817Z,949.92
2019-02-06T11:07:14.951Z,949.90
2019-02-06T11:08:22.995Z,949.84
2019-02-06T11:09:30.987Z,949.84
2019-02-06T11:10:39.041Z,949.81
2019-02-06T11:11:47.079Z,949.81
2019-02-06T11:12:55.253Z,949.77
2019-02-06T11:14:03.209Z,949.80
2019-02-06T11:15:11.260Z,949.80
2019-02-06T11:16:19.315Z,949.78
2019-02-06T11:17:27.848Z,949.80
2019-02-06T11:18:35.706Z,949.77
2019-02-06T11:19:44.038Z,949.80
2019-02-06T11:20:51.532Z,949.79
2019-02-06T11:21:59.621Z,949.76
2019-02-06T11:23:07.761Z,949.79
2019-02-06T11:24:15.739Z,949.73
2019-02-06T11:25:24.176Z,949.73
2019-02-06T11:26:31.834Z,949.75
2019-02-06T11:27:40.006Z,949.77
2019-02-06T11:28:48.167Z,949.74
2019-02-06T11:29:56.011Z,949.71
2019-02-06T11:31:04.097Z,949.70
2019-02-06T11:32:12.122Z,949.67
2019-02-06T11:33:20.298Z,949.61
2019-02-06T11:34:28.326Z,949.59
2019-02-06T11:35:36.336Z,949.53
2019-02-06T11:36:44.606Z,949.49
2019-02-06T11:37:52.886Z,949.48
2019-02-06T11:39:00.927Z,949.47
2019-02-06T11:40:08.890Z,949.47
2019-02-06T11:41:16.892Z,949.45
2019-02-06T11:42:24.755Z,949.46
2019-02-06T11:43:32.716Z,949.40
2019-02-06T11:44:40.849Z,949.41
2019-02-06T11:45:48.825Z,949.39
2019-02-06T11:46:56.909Z,949.36
2019-02-06T11:48:05.072Z,949.37
2019-02-06T11:49:13.262Z,949.38
2019-02-06T11:50:21.081Z,949.36
2019-02-06T11:51:29.137Z,949.30
2019-02-06T11:52:37.295Z,949.27
2019-02-06T11:53:45.282Z,949.25
2019-02-06T11:54:53.325Z,949.25
2019-02-06T11:56:01.799Z,949.23
2019-02-06T11:57:09.881Z,949.21
2019-02-06T11:58:18.064Z,949.19
2019-02-06T11:59:25.632Z,949.18
2019-02-06T12:00:34.082Z,949.20
2019-02-06T12:01:42.120Z,949.12
2019-02-06T12:02:50.253Z,949.10
2019-02-06T12:03:57.797Z,949.11
2019-02-06T12:05:05.860Z,949.13
2019-02-06T12:06:13.921Z,949.09
2019-02-06T12:07:22.090Z,949.13
2019-02-06T12:08:31.179Z,949.13
2019-02-06T12:09:38.088Z,949.11
2019-02-06T12:10:46.163Z,949.10
2019-02-06T12:11:54.203Z,949.09
2019-02-06T12:13:03.167Z,949.05
2019-02-06T12:14:10.993Z,949.03
2019-02-06T12:15:18.536Z,949.02
2019-02-06T12:16:26.521Z,949.04
2019-02-06T12:17:34.683Z,949.02
2019-02-06T12:18:42.671Z,948.98
2019-02-06T12:19:50.633Z,948.96
2019-02-06T12:20:58.910Z,948.95
2019-02-06T12:22:06.739Z,948.92
2019-02-06T12:23:14.847Z,948.92
2019-02-06T12:24:22.964Z,948.92
2019-02-06T12:25:30.935Z,948.89
2019-02-06T12:26:39.392Z,948.92
2019-02-06T12:27:47.100Z,948.87
2019-02-06T12:28:55.587Z,948.86
2019-02-06T12:30:03.163Z,948.83
2019-02-06T12:31:11.216Z,948.82
2019-02-06T12:32:19.651Z,948.79
2019-02-06T12:33:27.405Z,948.77
2019-02-06T12:34:35.788Z,948.77
2019-02-06T12:35:43.555Z,948.72
2019-02-06T12:36:51.801Z,948.70
2019-02-06T12:37:59.580Z,948.67
2019-02-06T12:39:07.904Z,948.62
2019-02-06T12:40:21.353Z,948.59
2019-02-06T12:41:23.974Z,948.55
2019-02-06T12:42:32.186Z,948.56
2019-02-06T12:43:40.000Z,948.54
2019-02-06T12:44:47.978Z,948.53
2019-02-06T12:45:55.981Z,948.49
2019-02-06T12:47:04.062Z,948.45
2019-02-06T12:48:12.096Z,948.43
2019-02-06T12:49:20.259Z,948.38
2019-02-06T12:50:28.334Z,948.33
2019-02-06T12:51:36.410Z,948.35
2019-02-06T12:52:44.344Z,948.33
2019-02-06T12:53:52.649Z,948.29
2019-02-06T12:55:00.590Z,948.30
2019-02-06T12:56:08.958Z,948.27
2019-02-06T12:57:16.585Z,948.26
2019-02-06T12:58:26.141Z,948.28
2019-02-06T12:59:32.781Z,948.30
2019-02-06T13:00:40.736Z,948.27
2019-02-06T13:01:48.795Z,948.27
2019-02-06T13:02:59.538Z,948.27
2019-02-06T13:04:05.001Z,948.28
2019-02-06T13:05:13.313Z,948.29
2019-02-06T13:06:21.061Z,948.26
2019-02-06T13:07:29.096Z,948.22
2019-02-06T13:08:37.157Z,948.22
2019-02-06T13:09:45.316Z,948.22
2019-02-06T13:10:53.527Z,948.19
2019-02-06T13:12:01.418Z,948.21
2019-02-06T13:13:09.436Z,948.23
2019-02-06T13:14:17.565Z,948.15
2019-02-06T13:15:25.521Z,948.15
2019-02-06T13:16:33.613Z,948.08
2019-02-06T13:17:41.608Z,948.07
2019-02-06T13:18:49.694Z,948.11
2019-02-06T13:19:58.641Z,948.07
2019-02-06T13:21:06.026Z,948.03
2019-02-06T13:22:14.050Z,948.04
2019-02-06T13:23:21.900Z,948.07
2019-02-06T13:24:30.510Z,948.00
2019-02-06T13:25:38.050Z,947.97
2019-02-06T13:26:46.088Z,947.96
2019-02-06T13:27:55.184Z,947.94
2019-02-06T13:29:02.195Z,947.92
2019-02-06T13:30:10.281Z,947.89
2019-02-06T13:31:18.338Z,947.94
2019-02-06T13:32:26.393Z,947.91
2019-02-06T13:33:34.621Z,947.84
2019-02-06T13:34:42.603Z,947.85
2019-02-06T13:35:50.576Z,947.81
2019-02-06T13:36:58.638Z,947.82
2019-02-06T13:38:06.682Z,947.82
2019-02-06T13:39:14.758Z,947.78
2019-02-06T13:40:22.844Z,947.76
2019-02-06T13:41:31.688Z,947.80
2019-02-06T13:42:38.999Z,947.80
2019-02-06T13:43:47.313Z,947.74
2019-02-06T13:44:55.129Z,947.72
2019-02-06T13:46:03.085Z,947.72
2019-02-06T13:47:11.519Z,947.72
2019-02-06T13:48:19.509Z,947.69
2019-02-06T13:49:27.356Z,947.68
2019-02-06T13:50:35.341Z,947.68
2019-02-06T13:51:43.423Z,947.70
2019-02-06T13:52:51.426Z,947.68
2019-02-06T13:53:59.515Z,947.65
2019-02-06T13:55:07.665Z,947.68
2019-02-06T13:56:15.611Z,947.66
2019-02-06T13:57:33.299Z,947.64
2019-02-06T13:58:31.777Z,947.61
2019-02-06T13:59:39.874Z,947.61
2019-02-06T14:00:47.863Z,947.59
2019-02-06T14:01:55.911Z,947.59
2019-02-06T14:03:03.958Z,947.61
2019-02-06T14:04:12.253Z,947.58
2019-02-06T14:05:20.137Z,947.59
2019-02-06T14:06:28.132Z,947.62
2019-02-06T14:07:36.203Z,947.57
2019-02-06T14:08:44.269Z,947.62